createdAt,value
2018-05-18T12:04:03.023Z,23.10
2018-05-18T12:06:34.142Z,24.20
2018-05-18T12:09:07.133Z,25.80
2018-05-18T12:11:37.615Z,27.30
2018-05-18T12:14:07.812Z,27.90
2018-05-18T12:16:40.527Z,27.10
2018-05-18T12:19:15.043Z,28.40
2018-05-18T12:21:46.322Z,28.60
2018-05-18T12:24:16.390Z,28.40
2018-05-18T14:17:29.121Z,30.10
2018-05-18T14:20:01.555Z,30.00
2018-05-18T14:22:34.595Z,29.90
2018-05-18T14:25:05.454Z,30.40
2018-05-18T14:27:36.193Z,30.10
2018-05-18T14:30:08.242Z,30.00
2018-05-18T14:48:44.116Z,28.90
2018-05-18T14:51:14.167Z,29.80
2018-05-18T14:53:45.064Z,29.60
2018-05-18T14:56:16.498Z,28.80
2018-05-18T14:58:46.429Z,28.40
2018-05-18T15:01:17.933Z,28.00
2018-05-18T15:03:47.118Z,27.60
2018-05-18T15:06:17.290Z,27.20
2018-05-18T15:08:47.073Z,27.00
2018-05-18T15:11:17.502Z,26.50
2018-05-18T15:13:46.709Z,26.20
2018-05-18T15:16:16.245Z,26.20
2018-05-18T15:18:45.603Z,25.80
2018-05-18T15:34:11.521Z,24.50
2018-05-18T15:59:18.459Z,22.80
2018-05-18T16:01:48.467Z,23.50
2018-05-18T16:06:50.289Z,23.30
2018-05-18T16:09:22.717Z,22.80
2018-05-18T16:11:55.097Z,23.10
2018-05-18T16:14:24.350Z,23.50
2018-05-18T16:16:56.298Z,23.20
2018-05-18T16:19:26.889Z,23.30
2018-05-18T16:21:56.808Z,23.20
2018-05-18T16:24:31.044Z,22.20
2018-05-18T16:27:02.229Z,22.40
2018-05-18T16:29:32.141Z,22.40
2018-05-18T16:32:02.555Z,22.40
2018-05-18T16:34:33.928Z,22.40
2018-05-18T16:37:06.486Z,22.40
2018-05-18T16:44:37.300Z,22.60
2018-05-18T16:47:07.701Z,22.90
2018-05-18T16:52:10.485Z,22.50
